Terminal Aerodrome Forecast
Issued by NWS Sterling, VA

Current Version | Previous Version | Graphics & Text | Print | Product List | Glossary On
Versions: 1 2 3 4 5 6 7 8 9 10 11 12 13 14 15 16 17 18 19 20 21 22 23 24
403
FTUS41 KLWX 081451 AAA
TAFDCA
TAF AMD
KDCA 081451Z 0815/0912 04008KT P6SM BKN150
     FM081700 06006KT P6SM BKN040
     FM090000 10008KT 5SM -RA OVC015
     FM090400 09007KT 1 1/2SM -RASN OVC008
     FM090600 06006KT 1/2SM SN OVC006=

USA.gov is the U.S. government's official web portal to all federal, state and local government web resources and services.